createdAt,value
2023-02-04T00:02:03.992Z,8.26
2023-02-04T00:04:30.353Z,8.24
2023-02-04T00:06:56.737Z,8.22
2023-02-04T00:09:23.193Z,8.20
2023-02-04T00:11:49.583Z,8.16
2023-02-04T00:14:15.966Z,8.13
2023-02-04T00:16:42.398Z,8.10
2023-02-04T00:19:08.756Z,8.08
2023-02-04T00:21:35.117Z,8.09
2023-02-04T00:24:01.592Z,8.08
2023-02-04T00:26:28.015Z,8.11
2023-02-04T00:28:54.510Z,8.13
2023-02-04T00:31:20.989Z,8.16
2023-02-04T00:33:47.356Z,8.19
2023-02-04T00:36:13.765Z,8.21
2023-02-04T00:38:40.121Z,8.25
2023-02-04T00:41:07.040Z,8.28
2023-02-04T00:43:33.684Z,8.31
2023-02-04T00:46:00.295Z,8.34
2023-02-04T00:48:26.978Z,8.38
2023-02-04T00:50:54.057Z,8.41
2023-02-04T00:53:20.492Z,8.44
2023-02-04T00:55:46.868Z,8.46
2023-02-04T00:58:13.296Z,8.49
2023-02-04T01:00:39.727Z,8.50
2023-02-04T01:03:06.222Z,8.53
2023-02-04T01:05:32.629Z,8.55
2023-02-04T01:07:59.033Z,8.56
2023-02-04T01:10:25.460Z,8.58
2023-02-04T01:12:52.201Z,8.59
2023-02-04T01:15:18.652Z,8.58
2023-02-04T01:17:45.068Z,8.59
2023-02-04T01:20:11.912Z,8.55
2023-02-04T01:22:38.375Z,8.55
2023-02-04T01:25:05.186Z,8.52
2023-02-04T01:27:31.605Z,8.52
2023-02-04T01:29:58.073Z,8.51
2023-02-04T01:32:24.547Z,8.49
2023-02-04T01:34:50.960Z,8.48
2023-02-04T01:37:18.000Z,8.48
2023-02-04T01:39:44.452Z,8.47
2023-02-04T01:42:11.667Z,8.47
2023-02-04T01:44:39.371Z,8.48
2023-02-04T01:47:05.877Z,8.48
2023-02-04T01:49:32.440Z,8.49
2023-02-04T01:51:58.897Z,8.50
2023-02-04T01:54:26.543Z,8.52
2023-02-04T01:56:55.191Z,8.55
2023-02-04T01:59:22.673Z,8.56
2023-02-04T02:01:54.086Z,8.59
2023-02-04T02:04:30.170Z,8.61
2023-02-04T02:06:59.291Z,8.63
2023-02-04T02:09:27.546Z,8.63
2023-02-04T02:11:54.294Z,8.66
2023-02-04T02:14:21.065Z,8.65
2023-02-04T02:16:47.767Z,8.65
2023-02-04T02:19:20.344Z,8.68
2023-02-04T02:22:28.033Z,8.68
2023-02-04T02:24:54.459Z,8.69
2023-02-04T02:27:21.956Z,8.69
2023-02-04T02:29:48.621Z,8.68
2023-02-04T02:32:15.700Z,8.67
2023-02-04T02:34:43.494Z,8.66
2023-02-04T02:37:10.043Z,8.65
2023-02-04T02:39:38.527Z,8.64
2023-02-04T02:42:05.269Z,8.63
2023-02-04T02:44:32.211Z,8.62
2023-02-04T02:46:59.000Z,8.61
2023-02-04T02:49:26.460Z,8.60
2023-02-04T02:51:53.272Z,8.60
2023-02-04T02:54:24.187Z,8.61
2023-02-04T02:56:51.698Z,8.60
2023-02-04T02:59:18.832Z,8.60
2023-02-04T03:01:48.761Z,8.60
2023-02-04T03:04:16.332Z,8.58
2023-02-04T03:06:42.778Z,8.57
2023-02-04T03:09:09.127Z,8.57
2023-02-04T03:11:36.332Z,8.56
2023-02-04T03:14:03.937Z,8.55
2023-02-04T03:16:33.051Z,8.55
2023-02-04T03:19:04.669Z,8.55
2023-02-04T03:21:31.263Z,8.54
2023-02-04T03:23:57.647Z,8.54
2023-02-04T03:26:25.236Z,8.55
2023-02-04T03:28:53.214Z,8.54
2023-02-04T03:31:19.821Z,8.54
2023-02-04T03:33:46.302Z,8.55
2023-02-04T03:36:12.692Z,8.55
2023-02-04T03:38:39.129Z,8.54
2023-02-04T03:41:05.714Z,8.56
2023-02-04T03:43:33.928Z,8.55
2023-02-04T03:46:00.586Z,8.56
2023-02-04T03:48:26.971Z,8.56
2023-02-04T03:50:53.333Z,8.57
2023-02-04T03:53:22.015Z,8.56
2023-02-04T03:55:48.377Z,8.54
2023-02-04T03:58:14.739Z,8.54
2023-02-04T04:00:41.172Z,8.54
2023-02-04T04:03:07.612Z,8.52
2023-02-04T04:05:34.032Z,8.54
2023-02-04T04:08:00.430Z,8.53
2023-02-04T04:10:26.814Z,8.55
2023-02-04T04:12:53.197Z,8.56
2023-02-04T04:15:19.528Z,8.56
2023-02-04T04:17:45.932Z,8.58
2023-02-04T04:20:12.619Z,8.59
2023-02-04T04:22:39.321Z,8.61
2023-02-04T04:25:06.442Z,8.62
2023-02-04T04:27:32.794Z,8.62
2023-02-04T04:29:59.120Z,8.61
2023-02-04T04:32:25.449Z,8.61
2023-02-04T04:34:51.788Z,8.58
2023-02-04T04:37:18.121Z,8.56
2023-02-04T04:39:44.496Z,8.54
2023-02-04T04:42:10.816Z,8.50
2023-02-04T04:44:37.176Z,8.49
2023-02-04T04:47:03.664Z,8.45
2023-02-04T04:49:30.033Z,8.40
2023-02-04T04:51:56.374Z,8.36
2023-02-04T04:54:22.709Z,8.33
2023-02-04T04:56:49.053Z,8.29
2023-02-04T04:59:15.486Z,8.25
2023-02-04T05:01:42.012Z,8.22
2023-02-04T05:04:08.362Z,8.19
2023-02-04T05:06:34.724Z,8.16
2023-02-04T05:09:01.161Z,8.12
2023-02-04T05:11:27.624Z,8.11
2023-02-04T05:13:53.936Z,8.09
2023-02-04T05:16:20.384Z,8.07
2023-02-04T05:18:47.040Z,8.05
2023-02-04T05:21:13.506Z,8.04
2023-02-04T05:23:39.852Z,8.03
2023-02-04T05:26:06.189Z,8.03
2023-02-04T05:28:32.519Z,8.01
2023-02-04T05:30:58.923Z,8.00
2023-02-04T05:33:25.299Z,7.98
2023-02-04T05:35:51.667Z,7.98
2023-02-04T05:38:18.150Z,7.97
2023-02-04T05:40:44.487Z,7.97
2023-02-04T05:43:10.824Z,7.96
2023-02-04T05:45:37.218Z,7.96
2023-02-04T05:48:03.774Z,7.96
2023-02-04T05:50:30.312Z,7.95
2023-02-04T05:52:56.916Z,7.94
2023-02-04T05:55:23.269Z,7.93
2023-02-04T05:57:49.608Z,7.91
2023-02-04T06:00:16.016Z,7.90
2023-02-04T06:02:42.547Z,7.89
2023-02-04T06:05:08.884Z,7.88
2023-02-04T06:07:35.209Z,7.86
2023-02-04T06:10:01.598Z,7.86
2023-02-04T06:12:27.954Z,7.83
2023-02-04T06:14:54.309Z,7.83
2023-02-04T06:17:20.679Z,7.81
2023-02-04T06:19:47.001Z,7.79
2023-02-04T06:22:13.581Z,7.76
2023-02-04T06:24:39.987Z,7.75
2023-02-04T06:27:06.335Z,7.74
2023-02-04T06:29:32.657Z,7.72
2023-02-04T06:31:59.183Z,7.69
2023-02-04T06:34:25.616Z,7.66
2023-02-04T06:36:52.042Z,7.63
2023-02-04T06:39:18.401Z,7.62
2023-02-04T06:41:44.721Z,7.59
2023-02-04T06:44:11.126Z,7.58
2023-02-04T06:46:37.498Z,7.57
2023-02-04T06:49:03.822Z,7.56
2023-02-04T06:51:30.482Z,7.55
2023-02-04T06:53:56.859Z,7.55
2023-02-04T06:56:23.296Z,7.55
2023-02-04T06:58:49.720Z,7.56
2023-02-04T07:01:16.104Z,7.57
2023-02-04T07:03:42.467Z,7.59
2023-02-04T07:06:08.829Z,7.60
2023-02-04T07:08:35.199Z,7.62
2023-02-04T07:11:01.569Z,7.64
2023-02-04T07:13:27.923Z,7.66
2023-02-04T07:15:54.457Z,7.68
2023-02-04T07:18:21.284Z,7.70
2023-02-04T07:20:47.630Z,7.74
2023-02-04T07:23:14.017Z,7.75
2023-02-04T07:25:40.456Z,7.76
2023-02-04T07:28:06.912Z,7.77
2023-02-04T07:30:33.678Z,7.78
2023-02-04T07:33:00.498Z,7.79
2023-02-04T07:35:26.874Z,7.79
2023-02-04T07:37:53.204Z,7.79
2023-02-04T07:40:19.628Z,7.80
2023-02-04T07:42:46.009Z,7.80
2023-02-04T07:45:12.448Z,7.80
2023-02-04T07:47:38.849Z,7.81
2023-02-04T07:50:05.591Z,7.82
2023-02-04T07:52:31.927Z,7.84
2023-02-04T07:54:58.317Z,7.85
2023-02-04T07:57:24.668Z,7.86
2023-02-04T07:59:51.712Z,7.87
2023-02-04T08:02:18.090Z,7.89
2023-02-04T08:04:44.426Z,7.90
2023-02-04T08:07:10.777Z,7.93
2023-02-04T08:09:37.175Z,7.93
2023-02-04T08:12:03.724Z,7.93
2023-02-04T08:14:30.130Z,7.94
2023-02-04T08:16:56.521Z,7.93
2023-02-04T08:19:23.067Z,7.90
2023-02-04T08:21:49.611Z,7.91
2023-02-04T08:24:17.256Z,7.88
2023-02-04T08:26:44.143Z,7.89
2023-02-04T08:29:10.667Z,7.87
2023-02-04T08:31:38.095Z,7.89
2023-02-04T08:34:05.897Z,7.92
2023-02-04T08:36:32.695Z,7.95
2023-02-04T08:38:59.242Z,7.97
2023-02-04T08:41:25.790Z,8.04
2023-02-04T08:43:52.569Z,8.08
2023-02-04T08:46:19.136Z,8.13
2023-02-04T08:48:45.697Z,8.17
2023-02-04T08:51:12.276Z,8.20
2023-02-04T08:53:40.559Z,8.23
2023-02-04T08:56:08.912Z,8.23
2023-02-04T08:58:35.567Z,8.25
2023-02-04T09:01:02.728Z,8.26
2023-02-04T09:03:29.273Z,8.27
2023-02-04T09:05:55.864Z,8.27
2023-02-04T09:08:22.337Z,8.28
2023-02-04T09:10:48.825Z,8.28
2023-02-04T09:13:15.550Z,8.30
2023-02-04T09:15:42.043Z,8.30
2023-02-04T09:18:19.951Z,8.37
2023-02-04T09:20:46.575Z,8.40
2023-02-04T09:23:14.317Z,8.43
2023-02-04T09:25:43.849Z,8.48
2023-02-04T09:28:11.879Z,8.52
2023-02-04T09:30:39.401Z,8.55
2023-02-04T09:33:05.966Z,8.59
2023-02-04T09:35:32.372Z,8.62
2023-02-04T09:37:58.784Z,8.65
2023-02-04T09:40:27.553Z,8.71
2023-02-04T09:42:54.790Z,8.75
2023-02-04T09:45:28.753Z,8.85
2023-02-04T09:47:57.489Z,8.91
2023-02-04T09:50:26.524Z,8.98
2023-02-04T09:52:55.517Z,9.04
2023-02-04T09:55:28.470Z,9.10
2023-02-04T09:57:55.248Z,9.16
2023-02-04T10:00:24.893Z,9.21
2023-02-04T10:02:51.490Z,9.22
2023-02-04T10:05:24.648Z,9.25
2023-02-04T10:07:51.088Z,9.25
2023-02-04T10:10:23.944Z,9.28
2023-02-04T10:12:52.570Z,9.29
2023-02-04T10:15:20.459Z,9.31
2023-02-04T10:17:49.419Z,9.34
2023-02-04T10:20:21.716Z,9.38
2023-02-04T10:22:51.106Z,9.42
2023-02-04T10:25:20.389Z,9.47
2023-02-04T10:27:51.901Z,9.51
2023-02-04T10:30:21.618Z,9.57
2023-02-04T10:32:48.339Z,9.62
2023-02-04T10:35:17.520Z,9.70
2023-02-04T10:37:44.346Z,9.76
2023-02-04T10:40:34.082Z,9.86
2023-02-04T10:43:10.449Z,9.95
2023-02-04T10:45:37.948Z,10.02
2023-02-04T10:48:04.985Z,10.10
2023-02-04T10:50:31.684Z,10.19
2023-02-04T10:53:18.931Z,10.26
2023-02-04T10:55:47.250Z,10.35
2023-02-04T10:58:20.308Z,10.42
2023-02-04T11:00:46.786Z,10.48
2023-02-04T11:03:21.496Z,10.58
2023-02-04T11:05:48.077Z,10.64
2023-02-04T11:08:24.446Z,10.71
2023-02-04T11:11:15.584Z,10.75
2023-02-04T11:13:49.096Z,10.78
2023-02-04T11:16:18.439Z,10.79
2023-02-04T11:18:48.650Z,10.77
2023-02-04T11:21:33.058Z,10.77
2023-02-04T11:24:23.943Z,10.77
2023-02-04T11:26:53.868Z,10.75
2023-02-04T11:29:31.148Z,10.78
2023-02-04T11:32:12.168Z,10.77
2023-02-04T11:34:49.755Z,10.83
2023-02-04T11:37:27.785Z,10.85
2023-02-04T11:39:58.014Z,10.88
2023-02-04T11:42:30.209Z,10.91
2023-02-04T11:45:02.318Z,10.93
2023-02-04T11:47:35.648Z,10.94
2023-02-04T11:50:12.352Z,10.95
2023-02-04T11:52:42.486Z,10.94
2023-02-04T11:55:12.998Z,10.97
2023-02-04T11:57:41.641Z,10.98
2023-02-04T12:00:17.972Z,11.02
2023-02-04T12:02:47.199Z,11.03
2023-02-04T12:05:19.400Z,11.06
2023-02-04T12:07:47.829Z,11.08
2023-02-04T12:10:16.980Z,11.11
2023-02-04T12:12:49.280Z,11.14
2023-02-04T12:15:20.959Z,11.15
2023-02-04T12:17:59.837Z,11.16
2023-02-04T12:20:26.377Z,11.18
2023-02-04T12:22:53.177Z,11.19
2023-02-04T12:25:20.084Z,11.21
2023-02-04T12:27:46.525Z,11.23
2023-02-04T12:30:13.202Z,11.25
2023-02-04T12:32:39.797Z,11.28
2023-02-04T12:35:06.408Z,11.33
2023-02-04T12:37:32.769Z,11.39
2023-02-04T12:39:59.299Z,11.47
2023-02-04T12:42:25.642Z,11.57
2023-02-04T12:44:52.033Z,11.66
2023-02-04T12:47:18.404Z,11.74
2023-02-04T12:49:44.773Z,11.82
2023-02-04T12:52:11.286Z,11.90
2023-02-04T12:54:37.936Z,11.98
2023-02-04T12:57:04.316Z,12.06
2023-02-04T12:59:33.716Z,12.16
2023-02-04T13:02:00.258Z,12.24
2023-02-04T13:04:26.701Z,12.32
2023-02-04T13:06:53.250Z,12.39
2023-02-04T13:09:19.659Z,12.44
2023-02-04T13:11:46.100Z,12.49
2023-02-04T13:14:12.551Z,12.52
2023-02-04T13:16:38.912Z,12.54
2023-02-04T13:19:07.844Z,12.54
2023-02-04T13:21:36.356Z,12.55
2023-02-04T13:24:02.766Z,12.56
2023-02-04T13:26:29.231Z,12.59
2023-02-04T13:28:55.634Z,12.61
2023-02-04T13:31:22.149Z,12.65
2023-02-04T13:33:48.872Z,12.69
2023-02-04T13:36:15.473Z,12.72
2023-02-04T13:38:41.896Z,12.76
2023-02-04T13:41:08.320Z,12.81
2023-02-04T13:43:34.737Z,12.83
2023-02-04T13:46:02.897Z,12.84
2023-02-04T13:48:29.585Z,12.84
2023-02-04T13:50:56.032Z,12.82
2023-02-04T13:53:22.585Z,12.81
2023-02-04T13:55:49.009Z,12.76
2023-02-04T13:58:15.412Z,12.71
2023-02-04T14:00:41.805Z,12.67
2023-02-04T14:03:08.284Z,12.66
2023-02-04T14:05:34.743Z,12.64
2023-02-04T14:08:01.155Z,12.63
2023-02-04T14:10:27.615Z,12.62
2023-02-04T14:12:54.266Z,12.61
2023-02-04T14:15:20.664Z,12.61
2023-02-04T14:17:47.096Z,12.61
2023-02-04T14:20:13.538Z,12.62
2023-02-04T14:22:40.088Z,12.62
2023-02-04T14:25:06.580Z,12.61
2023-02-04T14:27:35.330Z,12.60
2023-02-04T14:30:01.840Z,12.60
2023-02-04T14:32:28.258Z,12.59
2023-02-04T14:34:54.754Z,12.57
2023-02-04T14:37:21.146Z,12.55
2023-02-04T14:39:47.471Z,12.52
2023-02-04T14:42:13.914Z,12.49
2023-02-04T14:44:40.337Z,12.45
2023-02-04T14:47:06.670Z,12.42
2023-02-04T14:49:34.847Z,12.37
2023-02-04T14:52:01.186Z,12.33
2023-02-04T14:54:27.559Z,12.27
2023-02-04T14:56:54.500Z,12.22
2023-02-04T14:59:20.984Z,12.18
2023-02-04T15:01:47.414Z,12.13
2023-02-04T15:04:13.843Z,12.10
2023-02-04T15:06:40.326Z,12.07
2023-02-04T15:09:06.735Z,12.04
2023-02-04T15:11:34.560Z,12.03
2023-02-04T15:14:00.957Z,11.99
2023-02-04T15:16:27.383Z,11.98
2023-02-04T15:18:54.013Z,11.95
2023-02-04T15:21:20.391Z,11.93
2023-02-04T15:23:47.380Z,11.92
2023-02-04T15:26:14.346Z,11.90
2023-02-04T15:28:40.774Z,11.89
2023-02-04T15:31:07.336Z,11.87
2023-02-04T15:33:33.736Z,11.84
2023-02-04T15:36:00.174Z,11.82
2023-02-04T15:38:26.574Z,11.80
2023-02-04T15:40:53.023Z,11.77
2023-02-04T15:43:19.478Z,11.72
2023-02-04T15:45:46.097Z,11.65
2023-02-04T15:48:13.288Z,11.55
2023-02-04T15:50:39.765Z,11.43
2023-02-04T15:53:06.765Z,11.33
2023-02-04T15:55:33.479Z,11.23
2023-02-04T15:57:59.948Z,11.13
2023-02-04T16:00:26.415Z,11.05
2023-02-04T16:02:53.033Z,10.97
2023-02-04T16:05:19.426Z,10.89
2023-02-04T16:07:45.775Z,10.81
2023-02-04T16:10:12.403Z,10.74
2023-02-04T16:12:38.830Z,10.65
2023-02-04T16:15:05.638Z,10.55
2023-02-04T16:17:32.021Z,10.47
2023-02-04T16:19:58.428Z,10.40
2023-02-04T16:22:24.865Z,10.32
2023-02-04T16:24:52.892Z,10.26
2023-02-04T16:27:19.885Z,10.20
2023-02-04T16:29:46.505Z,10.13
2023-02-04T16:32:12.973Z,10.06
2023-02-04T16:34:39.497Z,9.99
2023-02-04T16:37:05.971Z,9.93
2023-02-04T16:39:32.329Z,9.82
2023-02-04T16:41:58.854Z,9.74
2023-02-04T16:44:25.291Z,9.65
2023-02-04T16:46:51.713Z,9.55
2023-02-04T16:49:18.108Z,9.45
2023-02-04T16:51:44.461Z,9.36
2023-02-04T16:54:11.016Z,9.28
2023-02-04T16:56:37.369Z,9.20
2023-02-04T16:59:04.212Z,9.12
2023-02-04T17:01:30.724Z,9.04
2023-02-04T17:04:00.046Z,8.98
2023-02-04T17:06:32.052Z,8.90
2023-02-04T17:08:59.115Z,8.83
2023-02-04T17:11:28.987Z,8.77
2023-02-04T17:13:56.534Z,8.70
2023-02-04T17:16:22.991Z,8.65
2023-02-04T17:18:49.489Z,8.60
2023-02-04T17:21:16.117Z,8.53
2023-02-04T17:23:44.093Z,8.48
2023-02-04T17:26:10.512Z,8.43
2023-02-04T17:28:36.870Z,8.36
2023-02-04T17:31:03.312Z,8.32
2023-02-04T17:33:29.757Z,8.26
2023-02-04T17:35:56.175Z,8.20
2023-02-04T17:38:22.527Z,8.16
2023-02-04T17:40:50.106Z,8.11
2023-02-04T17:43:16.867Z,8.07
2023-02-04T17:45:43.340Z,8.04
2023-02-04T17:48:09.691Z,8.00
2023-02-04T17:50:39.268Z,7.96
2023-02-04T17:53:06.790Z,7.89
2023-02-04T17:55:35.328Z,7.84
2023-02-04T17:58:11.380Z,7.78
2023-02-04T18:00:37.944Z,7.74
2023-02-04T18:03:05.724Z,7.69
2023-02-04T18:05:35.733Z,7.64
2023-02-04T18:08:11.564Z,7.61
2023-02-04T18:10:41.571Z,7.56
2023-02-04T18:13:17.127Z,7.52
2023-02-04T18:15:55.412Z,7.47
2023-02-04T18:18:21.779Z,7.43
2023-02-04T18:20:56.336Z,7.41
2023-02-04T18:23:22.904Z,7.35
2023-02-04T18:25:49.292Z,7.32
2023-02-04T18:28:19.393Z,7.28
2023-02-04T18:30:46.899Z,7.25
2023-02-04T18:33:25.983Z,7.20
2023-02-04T18:36:00.545Z,7.17
2023-02-04T18:38:37.067Z,7.12
2023-02-04T18:41:27.632Z,7.07
2023-02-04T18:44:02.367Z,7.02
2023-02-04T18:46:35.504Z,6.97
2023-02-04T18:49:26.564Z,6.91
2023-02-04T18:51:53.563Z,6.87
2023-02-04T18:54:36.188Z,6.83
2023-02-04T18:57:16.021Z,6.79
2023-02-04T18:59:42.511Z,6.75
2023-02-04T19:02:21.305Z,6.71
2023-02-04T19:04:47.649Z,6.68
2023-02-04T19:07:15.784Z,6.65
2023-02-04T19:09:42.119Z,6.63
2023-02-04T19:12:28.240Z,6.62
2023-02-04T19:14:54.567Z,6.60
2023-02-04T19:17:25.177Z,6.59
2023-02-04T19:20:02.574Z,6.55
2023-02-04T19:22:41.609Z,6.53
2023-02-04T19:25:33.101Z,6.51
2023-02-04T19:28:02.194Z,6.47
2023-02-04T19:30:28.556Z,6.45
2023-02-04T19:32:58.240Z,6.42
2023-02-04T19:35:27.558Z,6.39
2023-02-04T19:37:56.632Z,6.36
2023-02-04T19:40:23.185Z,6.34
2023-02-04T19:42:49.802Z,6.31
2023-02-04T19:45:25.274Z,6.29
2023-02-04T19:47:54.088Z,6.26
2023-02-04T19:50:34.330Z,6.24
2023-02-04T19:53:05.017Z,6.20
2023-02-04T19:55:35.718Z,6.15
2023-02-04T19:58:29.763Z,6.12
2023-02-04T20:01:04.859Z,6.08
2023-02-04T20:03:40.545Z,6.05
2023-02-04T20:06:09.936Z,6.03
2023-02-04T20:08:46.074Z,6.00
2023-02-04T20:11:24.685Z,5.93
2023-02-04T20:13:56.807Z,5.87
2023-02-04T20:16:40.843Z,5.81
2023-02-04T20:19:26.408Z,5.77
2023-02-04T20:22:07.780Z,5.71
2023-02-04T20:24:36.896Z,5.67
2023-02-04T20:27:36.679Z,5.63
2023-02-04T20:30:11.693Z,5.58
2023-02-04T20:32:55.627Z,5.54
2023-02-04T20:35:22.549Z,5.50
2023-02-04T20:37:59.248Z,5.45
2023-02-04T20:40:31.703Z,5.41
2023-02-04T20:43:01.248Z,5.39
2023-02-04T20:45:36.572Z,5.37
2023-02-04T20:48:18.042Z,5.34
2023-02-04T20:50:45.550Z,5.31
2023-02-04T20:53:19.517Z,5.28
2023-02-04T20:56:03.802Z,5.24
2023-02-04T20:58:38.797Z,5.21
2023-02-04T21:01:19.901Z,5.17
2023-02-04T21:03:47.321Z,5.13
2023-02-04T21:06:22.701Z,5.10
2023-02-04T21:08:51.961Z,5.07
2023-02-04T21:11:18.970Z,5.04
2023-02-04T21:13:45.364Z,5.02
2023-02-04T21:16:11.837Z,4.99
2023-02-04T21:18:38.939Z,4.97
2023-02-04T21:21:07.786Z,4.96
2023-02-04T21:23:35.621Z,4.93
2023-02-04T21:26:02.214Z,4.90
2023-02-04T21:28:31.878Z,4.87
2023-02-04T21:30:59.369Z,4.84
2023-02-04T21:33:26.001Z,4.80
2023-02-04T21:35:52.389Z,4.78
2023-02-04T21:38:18.796Z,4.75
2023-02-04T21:40:45.200Z,4.72
2023-02-04T21:43:11.603Z,4.69
2023-02-04T21:45:39.705Z,4.67
2023-02-04T21:48:07.885Z,4.63
2023-02-04T21:50:34.889Z,4.62
2023-02-04T21:53:01.320Z,4.59
2023-02-04T21:55:28.848Z,4.58
2023-02-04T21:57:55.337Z,4.56
2023-02-04T22:00:23.677Z,4.52
2023-02-04T22:02:51.310Z,4.50
2023-02-04T22:05:18.242Z,4.47
2023-02-04T22:07:44.686Z,4.44
2023-02-04T22:10:20.976Z,4.42
2023-02-04T22:12:47.877Z,4.37
2023-02-04T22:15:17.941Z,4.35
2023-02-04T22:17:45.188Z,4.33
2023-02-04T22:20:15.475Z,4.33
2023-02-04T22:22:46.094Z,4.33
2023-02-04T22:25:14.851Z,4.33
2023-02-04T22:27:41.290Z,4.33
2023-02-04T22:30:08.637Z,4.35
2023-02-04T22:32:35.061Z,4.35
2023-02-04T22:35:01.485Z,4.38
2023-02-04T22:37:27.866Z,4.40
2023-02-04T22:39:54.243Z,4.44
2023-02-04T22:42:20.658Z,4.47
2023-02-04T22:44:47.161Z,4.49
2023-02-04T22:47:13.516Z,4.51
2023-02-04T22:49:40.147Z,4.54
2023-02-04T22:52:06.842Z,4.57
2023-02-04T22:54:33.556Z,4.61
2023-02-04T22:57:00.557Z,4.68
2023-02-04T22:59:27.807Z,4.73
2023-02-04T23:01:55.348Z,4.79
2023-02-04T23:04:22.311Z,4.87
2023-02-04T23:06:49.196Z,4.91
2023-02-04T23:09:17.602Z,4.98
2023-02-04T23:11:44.220Z,5.05
2023-02-04T23:14:10.742Z,5.11
2023-02-04T23:16:37.145Z,5.17
2023-02-04T23:19:04.027Z,5.23
2023-02-04T23:21:30.995Z,5.27
2023-02-04T23:23:59.168Z,5.35
2023-02-04T23:26:25.875Z,5.41
2023-02-04T23:28:52.295Z,5.46
2023-02-04T23:31:18.745Z,5.51
2023-02-04T23:33:45.378Z,5.57
2023-02-04T23:36:11.857Z,5.61
2023-02-04T23:38:38.188Z,5.66
2023-02-04T23:41:04.860Z,5.70
2023-02-04T23:43:31.212Z,5.77
2023-02-04T23:45:59.754Z,5.78
2023-02-04T23:48:26.192Z,5.82
2023-02-04T23:50:52.669Z,5.85
2023-02-04T23:53:19.343Z,5.88
2023-02-04T23:55:46.203Z,5.92
2023-02-04T23:58:14.821Z,5.96
